Latest Weather Observations for Sellicks Hill

IDS60801

Issued at 4:32 am CST Saturday 23 May 2015 (issued every 30 minutes, with the page automatically refreshed every 10 minutes)

About weather observations | Map of weather stations | Latest weather observations for SA | Other Formats
Station Details ID: 023886 Name: MOUNT TERRIBLE RADAR Lat: -35.33 Lon: 138.50 Height: 385.7 m
Data from the previous 72 hours. | See also: Recent months for locations in South Australia
Date/Time
CST
Temp
°C
App
Temp
°C
Dew
Point
Rel
Hum
%
Delta-T
°C
Wind Press
QNH
hPa
Press
MSL
hPa
Rain
since 9 am
mm
Dir
 
Spd
km/h
Gust
km/h
Spd
kts
Gust
kts
23/04:30am - - - - - E 17 26 9 14 - - -
23/04:00am - - - - - E 19 28 10 15 - - -
23/03:30am - - - - - E 19 28 10 15 - - -
23/03:00am - - - - - ESE 19 26 10 14 - - -
23/02:30am - - - - - ESE 19 28 10 15 - - -
23/02:00am - - - - - ESE 17 28 9 15 - - -
23/01:30am - - - - - SE 22 28 12 15 - - -
23/01:00am - - - - - SE 22 30 12 16 - - -
23/12:30am - - - - - SE 22 28 12 15 - - -
23/12:00am - - - - - SE 24 30 13 16 - - -
 
Date/Time
CST
Temp
°C
App
Temp
°C
Dew
Point
Rel
Hum
%
Delta-T
°C
Wind Press
QNH
hPa
Press
MSL
hPa
Rain
since 9 am
mm
Dir
 
Spd
km/h
Gust
km/h
Spd
kts
Gust
kts
22/11:30pm - - - - - SE 20 28 11 15 - - -
22/11:00pm - - - - - SE 22 28 12 15 - - -
22/10:30pm - - - - - SE 22 28 12 15 - - -
22/10:00pm - - - - - SE 26 32 14 17 - - -
22/09:30pm - - - - - SE 28 37 15 20 - - -
22/09:00pm - - - - - SE 24 28 13 15 - - -
22/08:30pm - - - - - SE 32 37 17 20 - - -
22/08:00pm - - - - - SE 28 33 15 18 - - -
22/07:30pm - - - - - SE 32 35 17 19 - - -
22/07:00pm - - - - - SE 30 37 16 20 - - -
22/06:30pm - - - - - SE 30 35 16 19 - - -
22/06:00pm - - - - - SE 26 33 14 18 - - -
22/05:30pm - - - - - SSE 26 32 14 17 - - -
22/05:00pm - - - - - SSE 22 28 12 15 - - -
22/04:30pm - - - - - SSE 26 30 14 16 - - -
22/04:00pm - - - - - SSE 22 28 12 15 - - -
22/03:30pm - - - - - SSE 26 30 14 16 - - -
22/03:00pm - - - - - SSE 22 26 12 14 - - -
22/02:30pm - - - - - SSE 22 28 12 15 - - -
22/02:00pm - - - - - SSE 19 24 10 13 - - -
22/01:30pm - - - - - SSE 22 28 12 15 - - -
22/01:00pm - - - - - SSE 22 30 12 16 - - -
22/12:30pm - - - - - SE 22 30 12 16 - - -
22/12:00pm - - - - - SE 22 30 12 16 - - -
22/11:30am - - - - - SE 19 24 10 13 - - -
22/11:00am - - - - - SE 20 30 11 16 - - -
22/10:30am - - - - - SE 24 35 13 19 - - -
22/10:00am - - - - - SE 26 33 14 18 - - -
22/09:30am - - - - - SE 24 33 13 18 - - -
22/09:00am - - - - - SE 39 50 21 27 - - -
22/08:30am - - - - - SE 37 48 20 26 - - -
22/08:00am - - - - - SE 35 43 19 23 - - -
22/07:30am - - - - - SE 37 50 20 27 - - -
22/07:00am - - - - - SE 39 52 21 28 - - -
22/06:30am - - - - - SE 37 48 20 26 - - -
22/06:00am - - - - - SE 30 37 16 20 - - -
22/05:30am - - - - - SE 26 33 14 18 - - -
22/05:00am - - - - - SE 19 24 10 13 - - -
22/04:30am - - - - - SE 20 26 11 14 - - -
22/04:00am - - - - - SE 19 26 10 14 - - -
22/03:30am - - - - - SSE 20 28 11 15 - - -
22/03:00am - - - - - SSE 22 26 12 14 - - -
22/02:30am - - - - - SSE 19 24 10 13 - - -
22/02:00am - - - - - SSE 19 24 10 13 - - -
22/01:30am - - - - - SSE 13 19 7 10 - - -
22/01:00am - - - - - SSE 15 19 8 10 - - -
22/12:30am - - - - - SSE 19 22 10 12 - - -
22/12:00am - - - - - SSE 17 19 9 10 - - -
 
Date/Time
CST
Temp
°C
App
Temp
°C
Dew
Point
Rel
Hum
%
Delta-T
°C
Wind Press
QNH
hPa
Press
MSL
hPa
Rain
since 9 am
mm
Dir
 
Spd
km/h
Gust
km/h
Spd
kts
Gust
kts
21/11:30pm - - - - - SSE 17 20 9 11 - - -
21/11:00pm - - - - - SSE 19 22 10 12 - - -
21/10:30pm - - - - - S 19 24 10 13 - - -
21/10:00pm - - - - - S 17 22 9 12 - - -
21/09:30pm - - - - - S 9 15 5 8 - - -
21/09:00pm - - - - - S 11 17 6 9 - - -
21/08:30pm - - - - - S 11 17 6 9 - - -
21/08:00pm - - - - - S 15 20 8 11 - - -
21/07:30pm - - - - - S 20 24 11 13 - - -
21/07:00pm - - - - - S 15 17 8 9 - - -
21/06:30pm - - - - - S 9 11 5 6 - - -
21/06:00pm - - - - - SSE 15 20 8 11 - - -
21/05:30pm - - - - - S 17 22 9 12 - - -
21/05:00pm - - - - - S 13 15 7 8 - - -
21/04:30pm - - - - - S 19 26 10 14 - - -
21/04:00pm - - - - - S 13 24 7 13 - - -
21/03:30pm - - - - - S 17 30 9 16 - - -
21/03:00pm - - - - - S 15 28 8 15 - - -
21/02:30pm - - - - - S 15 20 8 11 - - -
21/02:00pm - - - - - S 15 24 8 13 - - -
21/01:30pm - - - - - S 19 30 10 16 - - -
21/01:00pm - - - - - S 17 24 9 13 - - -
21/12:30pm - - - - - S 15 28 8 15 - - -
21/12:00pm - - - - - SSW 9 15 5 8 - - -
21/11:30am - - - - - S 15 24 8 13 - - -
21/11:00am - - - - - S 17 22 9 12 - - -
21/10:30am - - - - - SSE 19 24 10 13 - - -
21/10:00am - - - - - SSE 24 30 13 16 - - -
21/09:30am - - - - - SSW 7 15 4 8 - - -
21/09:00am - - - - - S 13 17 7 9 - - -
21/08:30am - - - - - SSE 15 19 8 10 - - -
21/08:00am - - - - - SSE 17 19 9 10 - - -
21/07:30am - - - - - S 17 24 9 13 - - -
21/07:00am - - - - - SSE 20 22 11 12 - - -
21/06:30am - - - - - SSE 22 26 12 14 - - -
21/06:00am - - - - - SSE 26 33 14 18 - - -
21/05:30am - - - - - SSE 20 24 11 13 - - -
21/05:00am - - - - - SSE 24 28 13 15 - - -
21/04:30am - - - - - SSE 26 30 14 16 - - -
21/04:00am - - - - - SSE 32 37 17 20 - - -
21/03:30am - - - - - SSE 30 33 16 18 - - -
21/03:00am - - - - - SSE 35 39 19 21 - - -
21/02:30am - - - - - SSE 32 39 17 21 - - -
21/02:00am - - - - - SSE 33 39 18 21 - - -
21/01:30am - - - - - SSE 30 35 16 19 - - -
21/01:00am - - - - - SSE 22 26 12 14 - - -
21/12:30am - - - - - SSE 30 33 16 18 - - -
21/12:00am - - - - - SSE 35 43 19 23 - - -
 
Date/Time
CST
Temp
°C
App
Temp
°C
Dew
Point
Rel
Hum
%
Delta-T
°C
Wind Press
QNH
hPa
Press
MSL
hPa
Rain
since 9 am
mm
Dir
 
Spd
km/h
Gust
km/h
Spd
kts
Gust
kts
20/11:30pm - - - - - SSE 33 39 18 21 - - -
20/11:00pm - - - - - SSE 28 33 15 18 - - -
20/10:30pm - - - - - SSE 20 26 11 14 - - -
20/10:00pm - - - - - SSE 28 33 15 18 - - -
20/09:30pm - - - - - S 24 33 13 18 - - -
20/09:00pm - - - - - S 37 44 20 24 - - -
20/08:30pm - - - - - S 39 46 21 25 - - -
20/08:00pm - - - - - SSE 32 39 17 21 - - -
20/07:30pm - - - - - S 33 41 18 22 - - -
20/07:00pm - - - - - S 28 33 15 18 - - -
20/06:30pm - - - - - S 24 32 13 17 - - -
20/06:00pm - - - - - S 17 24 9 13 - - -
20/05:30pm - - - - - S 19 28 10 15 - - -
20/05:00pm - - - - - S 20 28 11 15 - - -
20/04:30pm - - - - - S 11 19 6 10 - - -
20/04:00pm - - - - - SSW 11 17 6 9 - - -
20/03:30pm - - - - - SSW 11 19 6 10 - - -
20/03:00pm - - - - - SSW 13 22 7 12 - - -
20/02:30pm - - - - - SSW 11 19 6 10 - - -
20/02:00pm - - - - - SSW 11 20 6 11 - - -
20/01:30pm - - - - - SSW 13 22 7 12 - - -
20/01:00pm - - - - - SSW 13 24 7 13 - - -
20/12:30pm - - - - - SSW 11 20 6 11 - - -
20/12:00pm - - - - - SSW 13 22 7 12 - - -
20/11:30am - - - - - S 13 20 7 11 - - -
20/11:00am - - - - - S 17 30 9 16 - - -
20/10:30am - - - - - S 15 26 8 14 - - -
20/10:00am - - - - - S 24 32 13 17 - - -
20/09:30am - - - - - S 15 28 8 15 - - -
20/09:00am - - - - - S 22 28 12 15 - - -
20/08:30am - - - - - S 19 30 10 16 - - -
20/08:00am - - - - - S 22 32 12 17 - - -
20/07:30am - - - - - S 15 24 8 13 - - -
20/07:00am - - - - - S 15 30 8 16 - - -
20/06:30am - - - - - SSW 13 20 7 11 - - -
20/06:00am - - - - - SSW 11 20 6 11 - - -
20/05:30am - - - - - SSW 9 17 5 9 - - -
20/05:00am - - - - - SSW 9 15 5 8 - - -

Other Formats:

Comma delimited format used in spreadsheet applications
http://www.bom.gov.au/fwo/IDS60801/IDS60801.95679.axf

JavaScript Object Notation format (JSON) in row-major order
http://www.bom.gov.au/fwo/IDS60801/IDS60801.95679.json